createdAt,value
2018-05-05T00:01:01.068Z,12.50
2018-05-05T00:03:34.352Z,12.30
2018-05-05T00:06:06.850Z,12.30
2018-05-05T00:08:39.292Z,12.20
2018-05-05T00:11:44.270Z,12.20
2018-05-05T00:14:18.409Z,12.00
2018-05-05T00:16:54.984Z,12.00
2018-05-05T00:19:28.160Z,12.00
2018-05-05T00:22:01.395Z,12.00
2018-05-05T00:24:34.548Z,12.00
2018-05-05T00:27:08.245Z,12.00
2018-05-05T00:29:40.661Z,12.10
2018-05-05T00:32:28.812Z,12.10
2018-05-05T00:35:05.654Z,12.00
2018-05-05T00:37:40.187Z,12.00
2018-05-05T00:40:13.696Z,12.10
2018-05-05T00:43:09.681Z,12.10
2018-05-05T00:45:43.249Z,12.00
2018-05-05T00:48:15.953Z,12.00
2018-05-05T00:50:48.272Z,11.90
2018-05-05T00:53:20.833Z,11.90
2018-05-05T00:55:54.240Z,11.90
2018-05-05T00:58:27.748Z,11.90
2018-05-05T01:01:00.148Z,11.90
2018-05-05T01:03:34.666Z,11.80
2018-05-05T01:06:08.065Z,11.70
2018-05-05T01:08:40.543Z,11.70
2018-05-05T01:11:17.141Z,11.70
2018-05-05T01:13:49.643Z,11.60
2018-05-05T01:16:37.416Z,11.60
2018-05-05T01:19:19.292Z,11.60
2018-05-05T01:21:51.775Z,11.60
2018-05-05T01:24:24.158Z,11.70
2018-05-05T01:26:56.634Z,11.70
2018-05-05T01:29:29.875Z,11.70
2018-05-05T01:32:02.340Z,11.70
2018-05-05T01:34:35.392Z,11.70
2018-05-05T01:37:08.848Z,11.70
2018-05-05T01:39:49.233Z,11.60
2018-05-05T01:42:24.993Z,11.60
2018-05-05T01:44:57.361Z,11.50
2018-05-05T01:47:59.855Z,11.50
2018-05-05T01:50:35.943Z,11.50
2018-05-05T01:53:10.464Z,11.50
2018-05-05T01:55:42.800Z,11.50
2018-05-05T01:58:17.180Z,11.40
2018-05-05T02:00:50.322Z,11.50
2018-05-05T02:03:24.864Z,11.40
2018-05-05T02:05:58.029Z,11.40
2018-05-05T02:08:32.684Z,11.40
2018-05-05T02:11:06.082Z,11.40
2018-05-05T02:13:38.562Z,11.40
2018-05-05T02:16:11.028Z,11.40
2018-05-05T02:18:48.458Z,11.40
2018-05-05T02:21:21.872Z,11.40
2018-05-05T02:23:55.537Z,11.40
2018-05-05T02:26:27.880Z,11.40
2018-05-05T02:29:00.569Z,11.30
2018-05-05T02:31:34.088Z,11.30
2018-05-05T02:34:19.377Z,11.20
2018-05-05T02:36:51.761Z,11.20
2018-05-05T02:39:32.335Z,11.20
2018-05-05T02:42:04.901Z,11.10
2018-05-05T02:44:38.328Z,11.00
2018-05-05T02:47:10.805Z,10.90
2018-05-05T02:49:43.144Z,10.80
2018-05-05T02:52:20.192Z,10.80
2018-05-05T02:54:53.808Z,10.60
2018-05-05T02:57:41.196Z,10.70
2018-05-05T03:00:13.581Z,10.70
2018-05-05T03:02:48.977Z,10.70
2018-05-05T03:05:24.929Z,10.70
2018-05-05T03:07:57.663Z,10.70
2018-05-05T03:10:30.147Z,10.60
2018-05-05T03:13:03.284Z,10.70
2018-05-05T03:15:36.060Z,10.60
2018-05-05T03:18:08.521Z,10.50
2018-05-05T03:20:40.894Z,10.40
2018-05-05T03:23:13.304Z,10.40
2018-05-05T03:25:45.876Z,10.40
2018-05-05T03:28:27.873Z,10.40
2018-05-05T03:31:00.397Z,10.40
2018-05-05T03:33:34.000Z,10.40
2018-05-05T03:36:12.317Z,10.30
2018-05-05T03:38:44.888Z,10.30
2018-05-05T03:41:18.404Z,10.40
2018-05-05T03:44:04.251Z,10.40
2018-05-05T03:46:36.772Z,10.40
2018-05-05T03:49:15.624Z,10.40
2018-05-05T03:51:47.971Z,10.40
2018-05-05T03:54:20.392Z,10.40
2018-05-05T03:56:52.796Z,10.30
2018-05-05T03:59:42.809Z,10.20
2018-05-05T04:02:32.389Z,10.20
2018-05-05T04:08:16.474Z,9.90
2018-05-05T04:10:50.036Z,9.90
2018-05-05T04:13:36.640Z,10.10
2018-05-05T04:16:33.209Z,10.20
2018-05-05T04:19:05.832Z,10.20
2018-05-05T04:21:39.256Z,10.20
2018-05-05T04:24:12.664Z,10.20
2018-05-05T04:26:46.170Z,10.30
2018-05-05T04:29:19.269Z,10.50
2018-05-05T04:31:51.961Z,10.50
2018-05-05T04:34:35.092Z,10.60
2018-05-05T04:37:12.721Z,10.70
2018-05-05T04:39:45.080Z,10.70
2018-05-05T04:42:19.448Z,11.00
2018-05-05T04:44:52.029Z,11.00
2018-05-05T04:47:27.697Z,11.10
2018-05-05T04:50:00.841Z,11.30
2018-05-05T04:52:36.449Z,11.30
2018-05-05T04:55:10.666Z,11.50
2018-05-05T04:57:43.169Z,11.50
2018-05-05T05:00:17.631Z,11.60
2018-05-05T05:02:50.804Z,11.80
2018-05-05T05:05:23.390Z,11.70
2018-05-05T05:07:55.765Z,11.70
2018-05-05T05:10:36.761Z,11.70
2018-05-05T05:13:19.299Z,11.60
2018-05-05T05:15:53.805Z,11.50
2018-05-05T05:18:27.971Z,11.70
2018-05-05T05:21:09.772Z,11.70
2018-05-05T05:23:42.126Z,11.80
2018-05-05T05:26:19.740Z,11.80
2018-05-05T05:28:54.891Z,11.90
2018-05-05T05:31:32.280Z,11.90
2018-05-05T05:34:04.669Z,12.00
2018-05-05T05:36:37.164Z,12.00
2018-05-05T05:39:11.286Z,12.30
2018-05-05T05:41:43.672Z,12.30
2018-05-05T05:44:16.711Z,12.50
2018-05-05T05:46:50.372Z,12.50
2018-05-05T05:49:23.792Z,12.60
2018-05-05T05:51:56.281Z,12.70
2018-05-05T05:54:29.429Z,12.90
2018-05-05T05:57:03.003Z,12.90
2018-05-05T05:59:42.657Z,13.10
2018-05-05T06:02:15.037Z,13.20
2018-05-05T06:04:50.192Z,13.20
2018-05-05T06:07:24.720Z,13.20
2018-05-05T06:09:57.200Z,13.30
2018-05-05T06:12:29.684Z,13.30
2018-05-05T06:15:03.227Z,13.40
2018-05-05T06:17:35.688Z,13.60
2018-05-05T06:20:09.314Z,13.70
2018-05-05T06:22:43.785Z,13.70
2018-05-05T06:25:20.248Z,13.70
2018-05-05T06:27:52.711Z,13.70
2018-05-05T06:30:38.971Z,13.80
2018-05-05T06:33:16.738Z,14.00
2018-05-05T06:35:50.981Z,14.30
2018-05-05T06:38:23.436Z,14.30
2018-05-05T06:41:11.584Z,14.30
2018-05-05T06:43:46.968Z,14.40
2018-05-05T06:46:27.856Z,14.30
2018-05-05T06:49:04.434Z,14.40
2018-05-05T06:51:37.569Z,14.80
2018-05-05T06:54:18.219Z,14.70
2018-05-05T06:56:50.941Z,14.90
2018-05-05T06:59:24.321Z,14.90
2018-05-05T07:01:57.752Z,14.90
2018-05-05T07:04:30.417Z,15.00
2018-05-05T07:07:06.595Z,15.20
2018-05-05T07:09:39.653Z,15.40
2018-05-05T07:12:20.708Z,15.40
2018-05-05T07:14:57.152Z,15.50
2018-05-05T07:17:34.556Z,15.40
2018-05-05T07:20:10.137Z,15.40
2018-05-05T07:22:43.281Z,15.80
2018-05-05T07:25:15.808Z,15.80
2018-05-05T07:27:48.425Z,16.00
2018-05-05T07:30:21.813Z,16.00
2018-05-05T07:33:17.600Z,15.80
2018-05-05T07:35:50.941Z,15.80
2018-05-05T07:38:25.584Z,15.80
2018-05-05T07:40:58.076Z,15.80
2018-05-05T07:43:32.522Z,15.80
2018-05-05T07:46:05.668Z,16.30
2018-05-05T07:48:41.680Z,16.30
2018-05-05T07:51:22.181Z,16.50
2018-05-05T07:53:58.550Z,16.50
2018-05-05T07:56:30.930Z,16.50
2018-05-05T07:59:03.435Z,16.60
2018-05-05T08:01:41.903Z,16.60
2018-05-05T08:04:18.909Z,16.60
2018-05-05T08:06:52.032Z,16.60
2018-05-05T08:09:26.574Z,16.70
2018-05-05T08:12:05.105Z,16.70
2018-05-05T08:14:37.480Z,16.70
2018-05-05T08:17:10.964Z,16.90
2018-05-05T08:19:43.397Z,17.10
2018-05-05T08:22:17.721Z,17.20
2018-05-05T08:25:08.577Z,17.10
2018-05-05T08:27:41.228Z,17.20
2018-05-05T08:30:13.739Z,17.40
2018-05-05T08:32:46.331Z,17.50
2018-05-05T08:35:18.825Z,17.70
2018-05-05T08:37:52.214Z,17.60
2018-05-05T08:40:24.694Z,17.50
2018-05-05T08:42:57.313Z,17.50
2018-05-05T08:45:29.864Z,17.70
2018-05-05T08:48:02.376Z,17.80
2018-05-05T08:50:43.581Z,17.90
2018-05-05T08:53:18.197Z,17.90
2018-05-05T08:55:51.591Z,18.40
2018-05-05T08:58:28.328Z,18.20
2018-05-05T09:01:01.816Z,18.60
2018-05-05T09:03:56.292Z,18.70
2018-05-05T09:06:28.836Z,18.60
2018-05-05T09:09:01.237Z,18.60
2018-05-05T09:11:34.597Z,18.80
2018-05-05T09:14:12.739Z,18.80
2018-05-05T09:17:14.278Z,18.70
2018-05-05T09:19:51.346Z,19.10
2018-05-05T09:22:23.705Z,19.10
2018-05-05T09:25:07.504Z,19.00
2018-05-05T09:27:41.023Z,19.00
2018-05-05T09:30:15.462Z,19.10
2018-05-05T09:32:48.081Z,19.00
2018-05-05T09:35:20.649Z,19.40
2018-05-05T09:38:33.161Z,19.50
2018-05-05T09:41:16.097Z,19.50
2018-05-05T09:43:51.696Z,19.60
2018-05-05T09:46:25.268Z,19.60
2018-05-05T09:48:57.666Z,19.70
2018-05-05T09:51:39.172Z,19.90
2018-05-05T09:54:11.621Z,20.00
2018-05-05T09:57:09.174Z,20.10
2018-05-05T09:59:41.725Z,20.10
2018-05-05T10:02:25.264Z,20.40
2018-05-05T10:05:05.790Z,20.40
2018-05-05T10:07:39.352Z,20.40
2018-05-05T10:10:11.777Z,20.50
2018-05-05T10:12:47.238Z,20.50
2018-05-05T10:15:22.757Z,20.50
2018-05-05T10:18:03.465Z,20.70
2018-05-05T10:20:37.827Z,20.70
2018-05-05T10:23:14.581Z,20.80
2018-05-05T10:25:49.089Z,20.70
2018-05-05T10:28:21.676Z,20.60
2018-05-05T10:30:54.964Z,20.60
2018-05-05T10:33:29.424Z,20.50
2018-05-05T10:36:25.804Z,20.70
2018-05-05T10:38:59.276Z,20.70
2018-05-05T10:41:35.873Z,20.90
2018-05-05T10:44:08.347Z,21.10
2018-05-05T10:46:40.736Z,21.20
2018-05-05T10:49:14.412Z,21.20
2018-05-05T10:51:46.828Z,21.40
2018-05-05T10:54:20.247Z,21.50
2018-05-05T10:56:52.732Z,21.60
2018-05-05T10:59:27.279Z,21.80
2018-05-05T11:01:59.754Z,21.70
2018-05-05T11:04:32.145Z,21.60
2018-05-05T11:07:04.625Z,21.80
2018-05-05T11:09:37.228Z,21.90
2018-05-05T11:12:12.820Z,21.80
2018-05-05T11:14:45.271Z,21.80
2018-05-05T11:17:17.756Z,21.80
2018-05-05T11:19:55.049Z,22.20
2018-05-05T11:22:30.604Z,22.30
2018-05-05T11:25:06.173Z,22.50
2018-05-05T11:27:39.036Z,22.70
2018-05-05T11:30:21.332Z,22.50
2018-05-05T11:32:54.976Z,22.40
2018-05-05T11:35:32.298Z,22.30
2018-05-05T11:38:04.683Z,22.60
2018-05-05T11:40:41.057Z,22.60
2018-05-05T11:43:20.752Z,22.70
2018-05-05T11:45:55.144Z,22.70
2018-05-05T11:48:27.563Z,22.60
2018-05-05T11:51:01.148Z,22.70
2018-05-05T11:53:40.917Z,22.60
2018-05-05T11:56:15.434Z,22.90
2018-05-05T11:58:47.934Z,23.00
2018-05-05T12:01:20.425Z,22.90
2018-05-05T12:04:02.333Z,22.90
2018-05-05T12:06:34.724Z,22.80
2018-05-05T12:09:08.130Z,23.10
2018-05-05T12:11:40.468Z,23.00
2018-05-05T12:14:14.769Z,23.30
2018-05-05T12:16:48.476Z,23.20
2018-05-05T12:19:20.864Z,23.30
2018-05-05T12:21:53.336Z,23.30
2018-05-05T12:24:26.940Z,23.50
2018-05-05T12:26:59.604Z,23.40
2018-05-05T12:29:34.050Z,23.60
2018-05-05T12:32:06.454Z,23.60
2018-05-05T12:34:38.892Z,23.60
2018-05-05T12:37:11.566Z,23.60
2018-05-05T12:39:44.246Z,23.60
2018-05-05T12:42:29.243Z,23.80
2018-05-05T12:45:03.917Z,23.90
2018-05-05T12:47:44.213Z,23.80
2018-05-05T12:50:21.630Z,24.30
2018-05-05T12:52:55.776Z,24.30
2018-05-05T12:55:28.190Z,24.30
2018-05-05T12:58:00.817Z,24.30
2018-05-05T13:00:35.066Z,24.00
2018-05-05T13:03:11.214Z,24.00
2018-05-05T13:05:44.776Z,24.20
2018-05-05T13:08:17.892Z,24.50
2018-05-05T13:11:04.805Z,24.50
2018-05-05T13:13:39.413Z,24.50
2018-05-05T13:16:12.095Z,24.30
2018-05-05T13:18:45.211Z,24.60
2018-05-05T13:21:17.768Z,24.60
2018-05-05T13:23:50.850Z,24.60
2018-05-05T13:26:23.391Z,24.70
2018-05-05T13:28:55.844Z,24.40
2018-05-05T13:31:28.968Z,24.30
2018-05-05T13:34:01.532Z,24.30
2018-05-05T13:36:34.064Z,24.50
2018-05-05T13:39:06.499Z,24.50
2018-05-05T13:41:39.672Z,24.50
2018-05-05T13:44:13.016Z,24.50
2018-05-05T13:46:45.403Z,24.50
2018-05-05T13:49:17.759Z,24.50
2018-05-05T13:51:50.096Z,24.80
2018-05-05T13:54:22.557Z,24.90
2018-05-05T13:57:00.792Z,24.70
2018-05-05T13:59:33.222Z,24.70
2018-05-05T14:02:06.328Z,25.00
2018-05-05T14:04:38.984Z,25.00
2018-05-05T14:07:11.484Z,24.90
2018-05-05T14:09:43.876Z,24.80
2018-05-05T14:12:17.373Z,25.00
2018-05-05T14:14:49.780Z,24.90
2018-05-05T14:17:25.125Z,24.70
2018-05-05T14:19:57.805Z,24.60
2018-05-05T14:22:31.192Z,24.50
2018-05-05T14:25:03.855Z,24.60
2018-05-05T14:27:36.505Z,24.70
2018-05-05T14:30:14.824Z,24.80
2018-05-05T14:32:48.292Z,24.80
2018-05-05T14:35:26.736Z,24.90
2018-05-05T14:37:59.235Z,24.90
2018-05-05T14:40:32.645Z,24.90
2018-05-05T14:43:05.278Z,24.80
2018-05-05T14:45:38.849Z,24.80
2018-05-05T14:48:11.455Z,24.80
2018-05-05T14:50:44.876Z,24.70
2018-05-05T14:53:17.426Z,24.80
2018-05-05T14:55:49.908Z,24.80
2018-05-05T14:58:22.412Z,24.70
2018-05-05T15:00:54.933Z,24.80
2018-05-05T15:03:28.188Z,24.90
2018-05-05T15:06:02.663Z,24.90
2018-05-05T15:08:40.661Z,24.90
2018-05-05T15:11:14.160Z,24.80
2018-05-05T15:13:46.640Z,24.80
2018-05-05T15:16:22.117Z,24.70
2018-05-05T15:18:58.588Z,24.60
2018-05-05T15:21:31.192Z,24.60
2018-05-05T15:24:03.806Z,24.80
2018-05-05T15:26:38.532Z,24.90
2018-05-05T15:29:12.040Z,25.10
2018-05-05T15:31:44.497Z,25.00
2018-05-05T15:34:19.041Z,24.90
2018-05-05T15:36:53.571Z,24.90
2018-05-05T15:39:26.060Z,25.00
2018-05-05T15:41:58.476Z,25.00
2018-05-05T15:44:31.006Z,25.10
2018-05-05T15:47:03.645Z,25.10
2018-05-05T15:49:37.245Z,25.20
2018-05-05T15:52:10.859Z,25.20
2018-05-05T15:54:47.840Z,25.20
2018-05-05T15:57:20.328Z,25.40
2018-05-05T15:59:53.544Z,25.50
2018-05-05T16:02:25.925Z,25.50
2018-05-05T16:04:58.352Z,25.50
2018-05-05T16:07:34.559Z,25.30
2018-05-05T16:10:08.918Z,25.10
2018-05-05T16:12:41.504Z,25.00
2018-05-05T16:15:15.741Z,24.70
2018-05-05T16:17:48.240Z,24.70
2018-05-05T16:20:21.638Z,24.80
2018-05-05T16:22:55.965Z,25.10
2018-05-05T16:25:28.440Z,25.10
2018-05-05T16:28:00.928Z,25.00
2018-05-05T16:30:33.437Z,25.10
2018-05-05T16:33:05.918Z,25.10
2018-05-05T16:35:39.032Z,25.20
2018-05-05T16:38:15.453Z,25.00
2018-05-05T16:40:47.776Z,25.00
2018-05-05T16:43:20.167Z,25.00
2018-05-05T16:45:52.555Z,25.10
2018-05-05T16:48:24.897Z,25.30
2018-05-05T16:51:01.520Z,25.10
2018-05-05T16:53:34.071Z,25.10
2018-05-05T16:56:10.680Z,25.00
2018-05-05T16:58:43.377Z,24.90
2018-05-05T17:01:15.892Z,24.80
2018-05-05T17:03:48.256Z,24.80
2018-05-05T17:06:20.708Z,25.00
2018-05-05T17:08:54.160Z,25.10
2018-05-05T17:11:26.660Z,24.90
2018-05-05T17:14:00.117Z,25.00
2018-05-05T17:16:32.539Z,24.70
2018-05-05T17:19:05.037Z,24.80
2018-05-05T17:21:39.245Z,24.60
2018-05-05T17:24:11.621Z,24.60
2018-05-05T17:26:44.989Z,24.60
2018-05-05T17:29:20.399Z,24.50
2018-05-05T17:31:56.059Z,24.50
2018-05-05T17:34:28.612Z,24.40
2018-05-05T17:37:01.242Z,24.40
2018-05-05T17:39:34.900Z,24.30
2018-05-05T17:42:12.152Z,24.10
2018-05-05T17:44:44.648Z,24.10
2018-05-05T17:47:18.253Z,23.80
2018-05-05T17:49:50.799Z,23.80
2018-05-05T17:52:23.257Z,23.50
2018-05-05T17:54:55.802Z,23.20
2018-05-05T17:57:28.380Z,23.00
2018-05-05T18:00:01.615Z,22.60
2018-05-05T18:02:34.008Z,22.60
2018-05-05T18:05:06.689Z,22.40
2018-05-05T18:07:39.053Z,22.20
2018-05-05T18:10:11.671Z,22.10
2018-05-05T18:12:44.864Z,21.80
2018-05-05T18:15:17.352Z,21.90
2018-05-05T18:17:50.647Z,21.60
2018-05-05T18:20:23.416Z,21.60
2018-05-05T18:22:58.000Z,21.60
2018-05-05T18:25:30.464Z,21.50
2018-05-05T18:28:02.848Z,21.50
2018-05-05T18:30:35.328Z,21.40
2018-05-05T18:33:09.676Z,21.20
2018-05-05T18:35:43.096Z,21.10
2018-05-05T18:38:17.530Z,21.00
2018-05-05T18:40:50.127Z,20.90
2018-05-05T18:43:22.806Z,20.90
2018-05-05T18:45:56.125Z,20.70
2018-05-05T18:48:32.594Z,20.70
2018-05-05T18:51:05.107Z,20.60
2018-05-05T18:53:37.592Z,20.50
2018-05-05T18:56:09.968Z,20.40
2018-05-05T18:58:43.589Z,20.30
2018-05-05T19:01:16.111Z,20.20
2018-05-05T19:03:48.760Z,20.20
2018-05-05T19:06:22.163Z,20.10
2018-05-05T19:08:56.589Z,20.00
2018-05-05T19:11:29.088Z,19.80
2018-05-05T19:14:04.897Z,19.80
2018-05-05T19:16:37.504Z,19.70
2018-05-05T19:19:13.953Z,19.60
2018-05-05T19:21:46.517Z,19.40
2018-05-05T19:24:22.891Z,19.40
2018-05-05T19:26:55.457Z,19.40
2018-05-05T19:29:27.764Z,19.50
2018-05-05T19:32:01.273Z,19.40
2018-05-05T19:34:33.755Z,19.30
2018-05-05T19:37:06.265Z,19.20
2018-05-05T19:39:38.648Z,19.10
2018-05-05T19:42:12.228Z,19.10
2018-05-05T19:44:46.897Z,19.00
2018-05-05T19:47:24.855Z,19.00
2018-05-05T19:49:59.344Z,19.00
2018-05-05T19:52:31.828Z,19.00
2018-05-05T19:55:05.375Z,19.00
2018-05-05T19:57:41.021Z,19.00
2018-05-05T20:00:13.588Z,18.90
2018-05-05T20:02:45.983Z,18.90
2018-05-05T20:05:23.804Z,18.90
2018-05-05T20:07:57.190Z,18.90
2018-05-05T20:10:30.604Z,18.90
2018-05-05T20:13:03.009Z,18.90
2018-05-05T20:15:37.339Z,18.80
2018-05-05T20:18:11.948Z,18.80
2018-05-05T20:20:46.377Z,18.80
2018-05-05T20:23:18.931Z,18.70
2018-05-05T20:25:52.284Z,18.60
2018-05-05T20:28:24.797Z,18.50
2018-05-05T20:30:57.356Z,18.40
2018-05-05T20:33:29.727Z,18.20
2018-05-05T20:36:03.029Z,18.10
2018-05-05T20:38:35.540Z,18.10
2018-05-05T20:41:08.025Z,18.00
2018-05-05T20:43:40.442Z,18.00
2018-05-05T20:46:13.150Z,17.80
2018-05-05T20:48:53.585Z,17.50
2018-05-05T20:51:29.139Z,17.30
2018-05-05T20:54:02.497Z,16.90
2018-05-05T20:56:38.013Z,16.60
2018-05-05T20:59:10.779Z,16.50
2018-05-05T21:01:43.377Z,16.30
2018-05-05T21:04:15.897Z,16.20
2018-05-05T21:06:49.492Z,16.10
2018-05-05T21:09:32.623Z,16.00
2018-05-05T21:12:07.061Z,16.00
2018-05-05T21:14:39.556Z,15.90
2018-05-05T21:17:12.188Z,15.80
2018-05-05T21:19:45.825Z,15.80
2018-05-05T21:22:19.304Z,15.70
2018-05-05T21:24:53.996Z,15.70
2018-05-05T21:27:28.538Z,15.60
2018-05-05T21:30:01.696Z,15.40
2018-05-05T21:32:37.417Z,15.40
2018-05-05T21:35:09.904Z,15.30
2018-05-05T21:37:47.408Z,15.30
2018-05-05T21:40:20.553Z,15.20
2018-05-05T21:42:53.408Z,15.20
2018-05-05T21:45:30.396Z,15.00
2018-05-05T21:48:03.895Z,15.00
2018-05-05T21:50:36.237Z,15.00
2018-05-05T21:53:12.077Z,14.90
2018-05-05T21:55:47.792Z,15.10
2018-05-05T21:58:25.344Z,15.30
2018-05-05T22:01:06.107Z,15.50
2018-05-05T22:03:40.542Z,15.50
2018-05-05T22:06:13.952Z,15.60
2018-05-05T22:08:47.364Z,15.90
2018-05-05T22:11:21.706Z,16.00
2018-05-05T22:13:54.049Z,16.00
2018-05-05T22:16:26.565Z,16.10
2018-05-05T22:18:59.112Z,16.00
2018-05-05T22:21:31.728Z,16.00
2018-05-05T22:24:07.976Z,15.90
2018-05-05T22:26:40.409Z,15.90
2018-05-05T22:29:24.252Z,15.70
2018-05-05T22:31:57.666Z,15.70
2018-05-05T22:34:30.375Z,15.70
2018-05-05T22:37:02.732Z,15.60
2018-05-05T22:39:56.884Z,15.60
2018-05-05T22:42:30.484Z,15.60
2018-05-05T22:45:05.773Z,15.50
2018-05-05T22:47:38.885Z,15.50
2018-05-05T22:50:12.121Z,15.50
2018-05-05T22:52:44.618Z,15.50
2018-05-05T22:55:17.316Z,15.50
2018-05-05T22:57:49.782Z,15.40
2018-05-05T23:00:26.752Z,15.30
2018-05-05T23:03:01.104Z,15.30
2018-05-05T23:05:33.595Z,15.30
2018-05-05T23:08:07.829Z,15.30
2018-05-05T23:10:40.192Z,15.30
2018-05-05T23:13:12.777Z,15.20
2018-05-05T23:15:52.456Z,15.10
2018-05-05T23:18:27.000Z,15.00
2018-05-05T23:20:59.489Z,14.80
2018-05-05T23:23:31.812Z,14.60
2018-05-05T23:26:06.090Z,14.30
2018-05-05T23:28:39.309Z,14.30
2018-05-05T23:31:11.923Z,14.30
2018-05-05T23:33:46.627Z,14.40
2018-05-05T23:36:21.268Z,14.50
2018-05-05T23:38:58.667Z,14.50
2018-05-05T23:41:32.183Z,14.50
2018-05-05T23:44:04.569Z,14.30
2018-05-05T23:46:45.049Z,14.40
2018-05-05T23:49:17.738Z,14.40
2018-05-05T23:51:53.948Z,14.40
2018-05-05T23:54:26.296Z,14.40
2018-05-05T23:56:59.697Z,14.40
2018-05-05T23:59:32.056Z,14.20
